Flight Track Log - Related Links

Times and Time Zones

All times are in EST time to prevent confusion due to time zone crossing. See the BJS339 flight status page for this flight to view local times or setup timezone preferences in your user account.

Time Position Orientation Groundspeed Altitude Reporting Facility
EST Latitude Longitude Course Direction KTS MPH feet Rate Location/Type
Tue 12:39:38 PM 48.6500 -123.5500 202° Southwest 200 230 3,200  Level Vancouver Center
Tue 12:40:38 PM 48.6000 -123.6000 213° Southwest 220 253 6,300 3,150 Climbing Vancouver Center
Tue 12:41:38 PM 48.5333 -123.6000 180° South 270 311 9,500 3,450 Climbing Vancouver Center
Tue 12:42:38 PM 48.4333 -123.6000 180° South 310 357 13,200 3,350 Climbing Vancouver Center
Tue 12:43:00 PM 47.9601 -123.3169 180° South  Level Estimated
Tue 12:43:38 PM 48.3500 -123.6000 180° South 340 391 16,200  Level Vancouver Center
Tue 12:44:00 PM 47.8534 -123.3813 202° Southwest  Level FlightAware Approximate
Tue 12:44:38 PM 48.2333 -123.5667 169° South 370 426 18,400  Level Vancouver Center
Tue 12:45:38 PM 48.1333 -123.5667 180° South 390 449 21,100 2,300 Climbing Vancouver Center
Tue 12:46:38 PM 48.0167 -123.5833 185° South 410 472 23,000 2,000 Climbing Vancouver Center
Tue 12:47:38 PM 47.9000 -123.5833 180° South 430 495 25,100 2,000 Climbing Vancouver Center
Tue 12:48:38 PM 47.7833 -123.5500 169° South 430 495 27,000 1,750 Climbing Vancouver Center
Tue 12:49:38 PM 47.6500 -123.5500 180° South 440 506 28,600 1,450 Climbing Vancouver Center
Tue 12:50:38 PM 47.5333 -123.5500 180° South 450 518 29,900 1,400 Climbing Vancouver Center
Tue 12:51:38 PM 47.4167 -123.5500 180° South 450 518 31,400 1,500 Climbing Vancouver Center
Tue 12:52:38 PM 47.2833 -123.5333 175° South 450 518 32,900 1,250 Climbing Vancouver Center
Tue 12:53:38 PM 47.1667 -123.5333 180° South 440 506 33,900 1,000 Climbing Vancouver Center
Tue 12:55:00 PM 47.0162 -123.4712 164° South  Level FlightAware Approximate
Tue 01:02:00 PM 46.2126 -123.4000 180° South  Level FlightAware Approximate
Tue 01:03:00 PM 46.0983 -123.4000 180° South  Level FlightAware Approximate
Tue 01:04:00 PM 45.9839 -123.3986 179° South  Level FlightAware Approximate
Tue 01:05:00 PM 45.8696 -123.3962 179° South  Level FlightAware Approximate
Tue 01:06:00 PM 45.7553 -123.3938 179° South  Level FlightAware Approximate
Tue 01:07:00 PM 45.6409 -123.3915 179° South  Level FlightAware Approximate
Tue 01:08:00 PM 45.5266 -123.3891 179° South  Level FlightAware Approximate
Tue 01:09:00 PM 45.4123 -123.3867 179° South  Level FlightAware Approximate
Tue 01:10:00 PM 45.2980 -123.3844 179° South  Level FlightAware Approximate
Tue 01:11:00 PM 45.1836 -123.3821 179° South  Level FlightAware Approximate
Tue 01:12:00 PM 45.0693 -123.3797 179° South  Level FlightAware Approximate
Tue 01:13:00 PM 44.9550 -123.3774 179° South  Level FlightAware Approximate
Tue 01:14:00 PM 44.8406 -123.3751 179° South  Level FlightAware Approximate
Tue 01:15:00 PM 44.7263 -123.3728 179° South  Level FlightAware Approximate
Tue 01:16:00 PM 44.6120 -123.3705 179° South  Level FlightAware Approximate
Tue 01:17:00 PM 44.4977 -123.3682 179° South  Level FlightAware Approximate
Tue 01:18:00 PM 44.3833 -123.3660 179° South  Level FlightAware Approximate
Tue 01:19:00 PM 44.2690 -123.3637 179° South  Level FlightAware Approximate
Tue 01:20:00 PM 44.1547 -123.3615 179° South  Level FlightAware Approximate
Tue 01:21:00 PM 44.0403 -123.3592 179° South  Level FlightAware Approximate
Tue 01:22:00 PM 43.9260 -123.3570 179° South  Level FlightAware Approximate
Tue 01:23:00 PM 43.8117 -123.3547 179° South  Level FlightAware Approximate
Tue 01:24:00 PM 43.6973 -123.3525 179° South  Level FlightAware Approximate
Tue 01:25:00 PM 43.5830 -123.3503 179° South  Level FlightAware Approximate
Tue 01:26:00 PM 43.4687 -123.3500 180° South  Level FlightAware Approximate
Tue 01:27:00 PM 43.3544 -123.3500 180° South  Level FlightAware Approximate
Tue 01:28:00 PM 43.2400 -123.3500 180° South  Level FlightAware Approximate
Tue 01:29:00 PM 43.1257 -123.3488 179° South  Level FlightAware Approximate
Tue 01:30:00 PM 43.0114 -123.3456 179° South  Level FlightAware Approximate
Tue 01:31:00 PM 42.8970 -123.3425 179° South  Level FlightAware Approximate
Tue 01:32:00 PM 42.7827 -123.3393 179° South  Level FlightAware Approximate
Tue 01:33:00 PM 42.6684 -123.3361 179° South  Level FlightAware Approximate
Tue 01:34:00 PM 42.5541 -123.3330 179° South  Level FlightAware Approximate
Tue 01:35:00 PM 42.4398 -123.3298 179° South  Level FlightAware Approximate
Tue 01:36:00 PM 42.3254 -123.3267 179° South  Level FlightAware Approximate
Tue 01:37:00 PM 42.2111 -123.3236 179° South  Level FlightAware Approximate
Tue 01:38:00 PM 42.0968 -123.3205 179° South  Level FlightAware Approximate
Tue 01:39:00 PM 41.9825 -123.3174 179° South  Level FlightAware Approximate
Tue 01:40:00 PM 41.8682 -123.3143 179° South  Level FlightAware Approximate
Tue 01:41:00 PM 41.7538 -123.3112 179° South  Level FlightAware Approximate
Tue 01:42:00 PM 41.6395 -123.3082 179° South  Level FlightAware Approximate
Tue 01:43:00 PM 41.5252 -123.3051 179° South  Level FlightAware Approximate
Tue 01:44:00 PM 41.4109 -123.3021 179° South  Level FlightAware Approximate
Tue 01:45:00 PM 41.2966 -123.2997 180° South  Level FlightAware Approximate
Tue 01:46:00 PM 41.1823 -123.2986 180° South  Level FlightAware Approximate
Tue 01:47:00 PM 41.0679 -123.2975 180° South  Level FlightAware Approximate
Tue 01:48:00 PM 40.9536 -123.2964 180° South  Level FlightAware Approximate
Tue 01:49:00 PM 40.8392 -123.2953 180° South  Level FlightAware Approximate
Tue 01:50:00 PM 40.7249 -123.2942 180° South  Level FlightAware Approximate
Tue 01:51:00 PM 40.6106 -123.2931 180° South  Level FlightAware Approximate
Tue 01:52:00 PM 40.4962 -123.2921 180° South  Level FlightAware Approximate
Tue 01:53:00 PM 40.3819 -123.2910 180° South  Level FlightAware Approximate
Tue 01:54:00 PM 40.2675 -123.2899 180° South  Level FlightAware Approximate
Tue 01:55:00 PM 40.1532 -123.2889 180° South  Level FlightAware Approximate
Tue 01:56:00 PM 40.0389 -123.2878 180° South  Level FlightAware Approximate
Tue 01:57:00 PM 39.9245 -123.2868 180° South  Level FlightAware Approximate
Tue 01:58:00 PM 39.8102 -123.2857 180° South  Level FlightAware Approximate
Tue 01:59:00 PM 39.6958 -123.2847 180° South  Level FlightAware Approximate
Tue 02:00:00 PM 39.5815 -123.2836 180° South  Level FlightAware Approximate
Tue 02:01:00 PM 39.4674 -123.2764 176° South  Level FlightAware Approximate
Tue 02:02:00 PM 39.3533 -123.2669 176° South  Level FlightAware Approximate
Tue 02:03:00 PM 39.2389 -123.2667 180° South  Level FlightAware Approximate
Tue 02:04:00 PM 39.1246 -123.2667 180° South  Level FlightAware Approximate
Tue 02:05:00 PM 39.0123 -123.2505 162° South  Level FlightAware Approximate
Tue 02:06:00 PM 38.9038 -123.2039 162° South  Level FlightAware Approximate
Tue 02:07:00 PM 38.7946 -123.1611 169° South  Level FlightAware Approximate
Tue 02:08:00 PM 38.6876 -123.1125 155° Southeast  Level FlightAware Approximate
Tue 02:09:00 PM 38.5796 -123.0651 163° South  Level FlightAware Approximate
Tue 02:10:00 PM 38.4712 -123.0189 159° South  Level FlightAware Approximate
Tue 02:11:00 PM 38.3626 -122.9732 162° South  Level FlightAware Approximate
Tue 02:12:00 PM 38.2537 -122.9290 165° South  Level FlightAware Approximate
Tue 02:13:00 PM 38.1431 -122.8921 165° South  Level FlightAware Approximate
Tue 02:14:00 PM 38.0410 -122.8358 137° Southeast  Level FlightAware Approximate
Tue 02:15:00 PM 37.9580 -122.7361 137° Southeast  Level FlightAware Approximate
Tue 02:16:00 PM 37.8737 -122.6474 122° Southeast  Level FlightAware Approximate
Tue 02:17:00 PM 37.7923 -122.5465 137° Southeast  Level FlightAware Approximate
Tue 02:18:00 PM 37.6995 -122.4629 148° Southeast  Level FlightAware Approximate
Tue 02:19:00 PM 37.6159 -122.3659 142° Southeast  Level FlightAware Approximate
Tue 02:20:00 PM 37.5513 -122.2520 127° Southeast  Level FlightAware Approximate
Tue 02:21:00 PM 37.4790 -122.1413 122° Southeast  Level FlightAware Approximate
Tue 02:22:00 PM 37.4138 -122.0230 127° Southeast  Level FlightAware Approximate
Tue 02:23:00 PM 37.3627 -121.9291 127° Southeast  Level Estimated
Tue 02:24:00 PM 37.3627 -121.9291 127° Southeast  Level Estimated
Tue 02:25:00 PM 37.3627 -121.9291 127° Southeast  Level Estimated
Tue 02:26:00 PM 37.3627 -121.9291 127° Southeast  Level Estimated
Tue 02:27:00 PM 37.3627 -121.9291 127° Southeast  Level Estimated
Tue 02:28:00 PM 37.3627 -121.9291 127° Southeast  Level Estimated
Tue 02:29:00 PM 37.3627 -121.9291 127° Southeast  Level Estimated
Tue 02:30:00 PM 37.3627 -121.9291 127° Southeast  Level Estimated
Tue 02:31:00 PM 37.3627 -121.9291 127° Southeast  Level Estimated
Tue 02:32:00 PM 37.3627 -121.9291 127° Southeast  Level Estimated
Tue 02:33:00 PM 37.3627 -121.9291 127° Southeast  Level Estimated
Tue 02:34:00 PM 37.3627 -121.9291 127° Southeast  Level Estimated
Tue 02:35:00 PM 37.3627 -121.9291 127° Southeast  Level Estimated

Login

Don't have an account? Register now (free) for customized features, flight alerts, and more!